KWDG/WDG METAR and TAF weather

Enter ICAO airport designator
Station Type Date Time Source
KWDG METAR 2019/09/20 01:45 UTC NOAA

KWDG 200145Z 09007KT 10SM FEW050 BKN200 26/20 A2991 RMK LAST


Station Type Date Time Source
KWDG Decoded METAR 2019/09/20 01:45 UTC NOAA

Enid, Enid Woodring Regional Airport, OK, United States (KWDG) 36-22-45N 097-47-28W
Sep 19, 2019 - 09:45 PM EDT / 2019.09.20 0145 UTC
Wind: from the E (090 degrees) at 8 MPH (7 KT):0
Visibility: 10 mile(s):0
Sky conditions: mostly cloudy
Temperature: 78 F (26 C)
Dew Point: 68 F (20 C)
Relative Humidity: 69%
Pressure (altimeter): 29.91 in. Hg (1012 hPa)
ob: KWDG 200145Z 09007KT 10SM FEW050 BKN200 26/20 A2991 RMK LAST
cycle: 2

Station Type Date Time Source
KWDG TAF UTC NOAA

Error!

Example: see airport list